Time;durP1;ratioP1;P1;durP2;ratioP2;P2;SDS_P1;SDS_P2;PMS_P1;PMS_P2;Temp;Humidity;BMP_temperature;BMP_pressure;BME280_temperature;BME280_humidity;BME280_pressure;Samples;Min_cycle;Max_cycle;Signal;HPM_P1;HPM_P2
2023/08/30 00:00:45;;;;;;;2.08;0.80;;;12.90;99.90;;;;;;4953592;28;20039;-89
2023/08/30 00:03:12;;;;;;;2.17;0.98;;;12.80;99.90;;;;;;4952142;28;20027;-91
2023/08/30 00:05:41;;;;;;;2.20;0.80;;;12.80;99.90;;;;;;4953497;28;20085;-89
2023/08/30 00:08:08;;;;;;;1.48;0.70;;;12.90;99.90;;;;;;4967317;28;20031;-90
2023/08/30 00:10:34;;;;;;;2.20;1.05;;;12.90;99.90;;;;;;4969184;28;20367;-88
2023/08/30 00:12:59;;;;;;;2.35;0.80;;;12.80;99.90;;;;;;4949975;28;20063;-89
2023/08/30 00:15:25;;;;;;;1.75;0.82;;;12.80;99.90;;;;;;4968138;28;20078;-90
2023/08/30 00:17:54;;;;;;;1.50;0.75;;;12.80;99.90;;;;;;4953213;28;20030;-89
2023/08/30 00:20:20;;;;;;;2.17;0.70;;;12.70;99.90;;;;;;4967383;28;20031;-87
2023/08/30 00:22:48;;;;;;;1.83;0.70;;;12.70;99.90;;;;;;4953229;28;20085;-88
2023/08/30 00:25:15;;;;;;;2.50;0.98;;;12.70;99.90;;;;;;4950616;28;20024;-89
2023/08/30 00:27:41;;;;;;;1.42;0.77;;;12.60;99.90;;;;;;4953286;28;20031;-89
2023/08/30 00:30:09;;;;;;;1.73;0.70;;;12.60;99.90;;;;;;4952922;28;20034;-88
2023/08/30 00:32:35;;;;;;;2.55;0.70;;;12.60;99.90;;;;;;4984200;28;20035;-88
2023/08/30 00:35:01;;;;;;;1.92;0.80;;;12.60;99.90;;;;;;4953160;28;20046;-89
2023/08/30 00:37:26;;;;;;;1.55;0.70;;;12.50;99.90;;;;;;4952046;28;20037;-89
2023/08/30 00:39:52;;;;;;;2.20;1.00;;;12.50;99.90;;;;;;4967935;28;20120;-90
2023/08/30 00:42:18;;;;;;;2.97;0.90;;;12.50;99.90;;;;;;4953755;28;20172;-88
2023/08/30 00:44:43;;;;;;;2.10;0.88;;;12.50;99.90;;;;;;4953276;28;20498;-88
2023/08/30 00:47:09;;;;;;;1.60;0.80;;;12.50;99.90;;;;;;4952148;28;20033;-89
2023/08/30 00:49:35;;;;;;;1.38;0.75;;;12.50;99.90;;;;;;4951870;28;20020;-89
2023/08/30 00:52:03;;;;;;;1.92;0.90;;;12.40;99.90;;;;;;4953304;28;20054;-90
2023/08/30 00:54:29;;;;;;;1.88;0.82;;;12.40;99.90;;;;;;4953569;28;20027;-89
2023/08/30 00:56:55;;;;;;;2.22;0.88;;;12.30;99.90;;;;;;4957137;28;20038;-90
2023/08/30 00:59:21;;;;;;;3.15;0.80;;;12.40;99.90;;;;;;4956521;28;20115;-89
2023/08/30 01:01:48;;;;;;;2.28;0.80;;;12.40;99.90;;;;;;4955200;28;20031;-90
2023/08/30 01:04:14;;;;;;;1.90;0.82;;;12.40;99.90;;;;;;4954671;28;20472;-89
2023/08/30 01:06:40;;;;;;;1.92;1.00;;;12.40;99.90;;;;;;4972658;28;20081;-89
2023/08/30 01:09:07;;;;;;;1.80;0.80;;;12.40;99.90;;;;;;4954859;28;20030;-90
2023/08/30 01:11:46;;;;;;;2.17;0.90;;;12.40;99.90;;;;;;4985492;28;20030;-89
2023/08/30 01:14:18;;;;;;;2.08;0.93;;;12.50;99.90;;;;;;4956325;28;20093;-89
2023/08/30 01:16:44;;;;;;;2.65;1.00;;;12.50;99.90;;;;;;4955278;28;20459;-89
2023/08/30 01:19:39;;;;;;;1.60;0.80;;;12.40;99.90;;;;;;4954257;28;20110;-89
2023/08/30 01:22:11;;;;;;;1.80;0.80;;;12.50;99.90;;;;;;4956490;28;20039;-88
2023/08/30 01:24:45;;;;;;;1.88;1.05;;;12.50;99.90;;;;;;4971939;28;20095;-89
2023/08/30 01:27:12;;;;;;;1.90;1.10;;;12.50;99.90;;;;;;4988093;28;20027;-88
2023/08/30 01:29:40;;;;;;;2.03;1.20;;;12.40;99.90;;;;;;4956123;28;20030;-89
2023/08/30 01:32:09;;;;;;;2.20;0.90;;;12.40;99.90;;;;;;4956308;28;20030;-89
2023/08/30 01:34:37;;;;;;;3.13;0.90;;;12.40;99.90;;;;;;4967998;28;20093;-89
2023/08/30 01:37:06;;;;;;;2.15;1.08;;;12.30;99.90;;;;;;4972072;28;20035;-89
2023/08/30 01:39:34;;;;;;;2.05;1.05;;;12.30;99.90;;;;;;4955043;28;20475;-89
2023/08/30 01:42:01;;;;;;;2.70;1.20;;;12.40;99.90;;;;;;4956110;28;20411;-90
2023/08/30 01:44:28;;;;;;;2.40;1.40;;;12.40;99.90;;;;;;4956109;28;20038;-88
2023/08/30 01:46:57;;;;;;;2.83;1.40;;;12.30;99.90;;;;;;4955844;28;20097;-90
2023/08/30 01:49:24;;;;;;;3.50;1.63;;;12.30;99.90;;;;;;4952727;28;20500;-90
2023/08/30 01:51:51;;;;;;;1.83;0.95;;;12.30;99.90;;;;;;4956013;28;20031;-88
2023/08/30 01:54:18;;;;;;;2.30;1.27;;;12.20;99.90;;;;;;4971959;28;20030;-89
2023/08/30 01:56:45;;;;;;;3.05;1.50;;;12.20;99.90;;;;;;4986685;28;20047;-89
2023/08/30 01:59:11;;;;;;;2.10;1.33;;;12.20;99.90;;;;;;4984159;28;20931;-90
2023/08/30 02:01:37;;;;;;;2.33;1.42;;;12.20;99.90;;;;;;4954085;28;20069;-89
2023/08/30 02:04:03;;;;;;;2.90;2.03;;;12.20;99.90;;;;;;4949737;28;20130;-89
2023/08/30 02:06:41;;;;;;;3.22;1.73;;;12.20;99.90;;;;;;4970055;28;20098;-89
2023/08/30 02:09:41;;;;;;;2.53;1.60;;;12.10;99.90;;;;;;4985080;28;20039;-88
2023/08/30 02:12:15;;;;;;;2.92;1.63;;;12.00;99.90;;;;;;4987432;28;20436;-91
2023/08/30 02:14:48;;;;;;;3.13;1.35;;;12.00;99.90;;;;;;4987298;28;20125;-88
2023/08/30 02:17:17;;;;;;;3.13;1.77;;;12.00;99.90;;;;;;4970130;28;20027;-90
2023/08/30 02:19:44;;;;;;;1.90;1.02;;;12.00;99.90;;;;;;4955638;28;20031;-89
2023/08/30 02:22:10;;;;;;;2.33;1.50;;;12.00;99.90;;;;;;4955342;28;20042;-90
2023/08/30 02:24:36;;;;;;;2.50;1.52;;;12.10;99.90;;;;;;4970473;28;20027;-89
2023/08/30 02:27:02;;;;;;;2.70;1.70;;;12.00;99.90;;;;;;4952852;28;20464;-89
2023/08/30 02:29:27;;;;;;;2.78;1.58;;;12.00;99.90;;;;;;4954900;28;20058;-88
2023/08/30 02:31:53;;;;;;;3.92;1.80;;;12.00;99.90;;;;;;4952695;28;20031;-88
2023/08/30 02:34:21;;;;;;;2.45;1.30;;;12.00;99.90;;;;;;4954834;28;20024;-89
2023/08/30 02:36:46;;;;;;;2.10;1.33;;;11.90;99.90;;;;;;4954079;28;20046;-90
2023/08/30 02:39:15;;;;;;;2.53;1.40;;;11.90;99.90;;;;;;4953403;28;20402;-89
2023/08/30 02:41:40;;;;;;;2.25;1.55;;;12.00;99.90;;;;;;4953278;28;20054;-88
2023/08/30 02:44:08;;;;;;;2.58;1.60;;;12.00;99.90;;;;;;4953740;28;20042;-89
2023/08/30 02:46:34;;;;;;;3.55;2.05;;;12.10;99.90;;;;;;4955276;28;20026;-88
2023/08/30 02:49:00;;;;;;;3.17;1.58;;;12.10;99.90;;;;;;4968484;28;20412;-89
2023/08/30 02:51:25;;;;;;;3.15;2.17;;;12.10;99.90;;;;;;4969610;28;20054;-89
2023/08/30 02:53:51;;;;;;;2.60;1.70;;;12.10;99.90;;;;;;4954241;28;20023;-89
2023/08/30 02:56:17;;;;;;;2.85;1.70;;;12.00;99.90;;;;;;4952801;28;20050;-90
2023/08/30 02:58:42;;;;;;;4.05;1.67;;;12.10;99.90;;;;;;4953251;28;20034;-89
2023/08/30 03:01:08;;;;;;;2.53;1.65;;;12.10;99.90;;;;;;4954993;28;20038;-89
2023/08/30 03:03:34;;;;;;;2.92;2.00;;;12.00;99.90;;;;;;4954848;28;20081;-88
2023/08/30 03:06:02;;;;;;;2.60;1.88;;;12.00;99.90;;;;;;4953073;28;20035;-89
2023/08/30 03:08:28;;;;;;;2.90;1.85;;;12.00;99.90;;;;;;4970118;28;20023;-90
2023/08/30 03:10:54;;;;;;;2.97;1.95;;;12.00;99.90;;;;;;4969297;28;20035;-89
2023/08/30 03:13:20;;;;;;;3.88;2.60;;;12.10;99.90;;;;;;4952685;28;20027;-89
2023/08/30 03:15:46;;;;;;;4.03;2.10;;;12.10;99.90;;;;;;4954312;28;20066;-90
2023/08/30 03:18:12;;;;;;;2.90;1.95;;;12.10;99.90;;;;;;4952599;28;20063;-88
2023/08/30 03:20:38;;;;;;;3.55;2.15;;;12.00;99.90;;;;;;4969438;28;20027;-90
2023/08/30 03:23:03;;;;;;;2.88;1.63;;;12.00;99.90;;;;;;4954197;28;20029;-89
2023/08/30 03:25:31;;;;;;;3.03;2.00;;;12.00;99.90;;;;;;4950308;28;20057;-89
2023/08/30 03:27:58;;;;;;;3.80;2.42;;;11.90;99.90;;;;;;4952958;28;20031;-90
2023/08/30 03:30:24;;;;;;;3.90;2.25;;;12.00;99.90;;;;;;4983389;28;20041;-89
2023/08/30 03:32:50;;;;;;;4.10;2.67;;;11.80;99.90;;;;;;4954478;28;20065;-89
2023/08/30 03:35:16;;;;;;;3.28;2.58;;;12.00;99.90;;;;;;4952073;28;20118;-89
2023/08/30 03:37:42;;;;;;;3.00;1.85;;;12.00;99.90;;;;;;4951401;28;20027;-89
2023/08/30 03:40:09;;;;;;;2.83;2.30;;;11.90;99.90;;;;;;4952839;28;20555;-90
2023/08/30 03:42:35;;;;;;;2.90;2.00;;;11.90;99.90;;;;;;4970642;28;20034;-90
2023/08/30 03:45:02;;;;;;;3.38;2.30;;;11.90;99.90;;;;;;4954328;28;20038;-88
2023/08/30 03:47:29;;;;;;;3.72;2.30;;;11.80;99.90;;;;;;4968344;28;20033;-89
2023/08/30 03:49:55;;;;;;;4.22;2.05;;;11.80;99.90;;;;;;4952880;28;20038;-88
2023/08/30 03:52:20;;;;;;;2.75;1.83;;;11.80;99.90;;;;;;4953912;28;20035;-90
2023/08/30 03:54:46;;;;;;;3.28;1.65;;;11.80;99.90;;;;;;4953065;28;20107;-89
2023/08/30 03:57:13;;;;;;;2.90;2.15;;;11.90;99.90;;;;;;4952089;28;20166;-89
2023/08/30 03:59:39;;;;;;;3.90;2.17;;;11.90;99.90;;;;;;4968832;28;20118;-90
2023/08/30 04:02:04;;;;;;;3.30;2.20;;;11.90;99.90;;;;;;4952150;28;20042;-90
2023/08/30 04:04:30;;;;;;;4.07;2.10;;;11.90;99.90;;;;;;4952546;28;20016;-89
2023/08/30 04:06:56;;;;;;;2.90;1.83;;;11.90;99.90;;;;;;4951796;28;20038;-90
2023/08/30 04:09:22;;;;;;;2.58;2.05;;;11.90;99.90;;;;;;4950988;28;20119;-89
2023/08/30 04:11:48;;;;;;;2.97;1.90;;;11.80;99.90;;;;;;4953633;28;20129;-89
2023/08/30 04:14:13;;;;;;;2.70;2.17;;;11.80;99.90;;;;;;4967648;28;20074;-88
2023/08/30 04:16:40;;;;;;;2.88;2.08;;;11.80;99.90;;;;;;4952453;28;20037;-90
2023/08/30 04:19:07;;;;;;;3.25;2.20;;;11.80;99.90;;;;;;4953280;28;20078;-88
2023/08/30 04:21:33;;;;;;;4.43;2.38;;;11.80;99.90;;;;;;4969922;28;20031;-90
2023/08/30 04:23:58;;;;;;;2.80;1.83;;;11.70;99.90;;;;;;4967851;28;20604;-89
2023/08/30 04:26:24;;;;;;;4.07;2.60;;;11.70;99.90;;;;;;4953069;28;20031;-90
2023/08/30 04:28:50;;;;;;;4.00;2.30;;;11.70;99.90;;;;;;4969566;28;20114;-90
2023/08/30 04:31:15;;;;;;;3.65;1.88;;;11.70;99.90;;;;;;4969079;28;20031;-89
2023/08/30 04:33:41;;;;;;;3.97;2.22;;;11.60;99.90;;;;;;4950569;28;20100;-88
2023/08/30 04:36:07;;;;;;;3.95;2.55;;;11.60;99.90;;;;;;4951154;28;20031;-89
2023/08/30 04:38:33;;;;;;;3.63;2.40;;;11.50;99.90;;;;;;4950494;28;20027;-89
2023/08/30 04:41:02;;;;;;;3.95;2.55;;;11.50;99.90;;;;;;4952672;28;20137;-90
2023/08/30 04:43:31;;;;;;;4.25;2.53;;;11.50;99.90;;;;;;4952245;28;20167;-89
2023/08/30 04:45:57;;;;;;;2.90;2.25;;;11.50;99.90;;;;;;4950776;28;20035;-89
2023/08/30 04:48:24;;;;;;;3.85;2.90;;;11.50;99.90;;;;;;4952032;28;20030;-89
2023/08/30 04:51:01;;;;;;;3.05;2.50;;;11.60;99.90;;;;;;4952398;28;20031;-89
2023/08/30 04:53:27;;;;;;;5.38;2.50;;;11.50;99.90;;;;;;4983881;28;20023;-89
2023/08/30 04:55:53;;;;;;;3.80;2.25;;;11.50;99.90;;;;;;4952122;28;20039;-89
2023/08/30 04:58:19;;;;;;;3.60;2.30;;;11.50;99.90;;;;;;4955413;28;20050;-88
2023/08/30 05:00:45;;;;;;;4.28;2.78;;;11.50;99.90;;;;;;4952338;28;20031;-90
2023/08/30 05:03:11;;;;;;;3.83;2.80;;;11.50;99.90;;;;;;4968115;28;20490;-89
2023/08/30 05:05:36;;;;;;;4.60;3.25;;;11.50;99.90;;;;;;4953243;28;20387;-88
2023/08/30 05:08:03;;;;;;;4.03;2.75;;;11.50;99.90;;;;;;4952233;28;20034;-88
2023/08/30 05:10:30;;;;;;;3.47;2.55;;;11.50;99.90;;;;;;4953102;28;20054;-88
2023/08/30 05:12:56;;;;;;;3.85;2.28;;;11.60;99.90;;;;;;4967948;28;20030;-89
2023/08/30 05:15:21;;;;;;;3.45;2.50;;;11.60;99.90;;;;;;4951961;28;20031;-89
2023/08/30 05:17:47;;;;;;;3.88;3.10;;;11.60;99.90;;;;;;4968528;28;20475;-89
2023/08/30 05:20:14;;;;;;;4.88;3.70;;;11.60;99.90;;;;;;4949679;28;20088;-89
2023/08/30 05:22:39;;;;;;;5.78;3.20;;;11.70;99.90;;;;;;4932233;28;20129;-87
2023/08/30 05:25:06;;;;;;;3.17;2.88;;;11.70;99.90;;;;;;4940357;28;20034;-90
2023/08/30 05:27:32;;;;;;;3.45;2.97;;;11.70;99.90;;;;;;4943947;28;20031;-88
2023/08/30 05:29:57;;;;;;;4.63;3.67;;;11.70;99.90;;;;;;4943880;28;20046;-86
2023/08/30 05:32:23;;;;;;;3.00;2.05;;;11.70;99.90;;;;;;4943854;28;20027;-87
2023/08/30 05:35:18;;;;;;;3.47;2.28;;;11.70;99.90;;;;;;4952769;28;20036;-88
2023/08/30 05:37:50;;;;;;;4.35;3.03;;;11.90;99.90;;;;;;4968090;28;20058;-87
2023/08/30 05:40:36;;;;;;;4.20;3.15;;;11.90;99.90;;;;;;4969050;28;20105;-90
2023/08/30 05:43:02;;;;;;;4.97;2.95;;;11.90;99.90;;;;;;4949932;28;20038;-87
2023/08/30 05:45:28;;;;;;;4.60;3.38;;;12.00;99.90;;;;;;4955388;28;20034;-86
2023/08/30 05:47:53;;;;;;;3.55;3.15;;;12.10;99.90;;;;;;4954944;28;20061;-89
2023/08/30 05:50:19;;;;;;;4.80;3.03;;;12.10;99.90;;;;;;4955032;28;20439;-87
2023/08/30 05:52:45;;;;;;;4.80;2.90;;;12.10;99.90;;;;;;4955785;28;20023;-87
2023/08/30 05:55:11;;;;;;;3.35;2.95;;;12.20;99.90;;;;;;4952739;28;20046;-89
2023/08/30 05:57:37;;;;;;;5.28;3.08;;;12.30;99.90;;;;;;4971401;28;20030;-89
2023/08/30 06:00:04;;;;;;;3.30;2.67;;;12.40;99.90;;;;;;4954336;28;20035;-89
2023/08/30 06:02:40;;;;;;;5.03;3.53;;;12.50;99.90;;;;;;4969674;28;20034;-86
2023/08/30 06:05:06;;;;;;;4.57;3.53;;;12.60;99.90;;;;;;4954597;28;20037;-90
2023/08/30 06:07:32;;;;;;;3.20;2.88;;;12.60;99.90;;;;;;4951576;28;20023;-88
2023/08/30 06:09:58;;;;;;;4.45;3.30;;;12.70;99.90;;;;;;4953015;28;20065;-88
2023/08/30 06:12:25;;;;;;;5.15;3.80;;;12.80;99.90;;;;;;4971278;28;20085;-87
2023/08/30 06:14:52;;;;;;;4.20;3.67;;;12.90;99.90;;;;;;4954580;28;20042;-88
2023/08/30 06:17:19;;;;;;;3.65;3.30;;;13.00;99.90;;;;;;4973060;28;20180;-89
2023/08/30 06:19:45;;;;;;;4.18;3.75;;;13.00;99.90;;;;;;4949244;28;20275;-88
2023/08/30 06:22:11;;;;;;;5.32;3.65;;;13.10;99.90;;;;;;4954103;28;20046;-89
2023/08/30 06:24:37;;;;;;;4.80;3.42;;;13.20;99.90;;;;;;4954423;28;20034;-90
2023/08/30 06:27:03;;;;;;;4.70;3.90;;;13.30;99.90;;;;;;4954540;28;20487;-86
2023/08/30 06:29:28;;;;;;;6.22;4.13;;;13.50;99.90;;;;;;4970175;28;20065;-90
2023/08/30 06:31:54;;;;;;;5.50;4.38;;;13.60;99.90;;;;;;4953147;28;20039;-91
2023/08/30 06:34:20;;;;;;;5.72;4.28;;;13.80;99.90;;;;;;4970606;28;20062;-91
2023/08/30 06:36:46;;;;;;;5.07;3.65;;;13.90;99.90;;;;;;4953278;28;20059;-91
2023/08/30 06:39:12;;;;;;;5.47;4.32;;;14.00;99.90;;;;;;4970851;28;20497;-88
2023/08/30 06:41:37;;;;;;;5.32;4.82;;;14.10;99.90;;;;;;4954045;28;20043;-90
2023/08/30 06:44:03;;;;;;;5.72;4.55;;;14.20;99.90;;;;;;4952807;28;20398;-88
2023/08/30 06:46:29;;;;;;;5.82;4.22;;;14.20;99.90;;;;;;4951818;28;20488;-88
2023/08/30 06:48:55;;;;;;;5.05;4.30;;;14.20;99.90;;;;;;4953827;28;20088;-90
2023/08/30 06:51:21;;;;;;;4.35;3.92;;;14.20;99.90;;;;;;4953956;28;20034;-86
2023/08/30 06:53:47;;;;;;;3.92;3.53;;;14.20;99.90;;;;;;4954515;28;20022;-91
2023/08/30 06:56:12;;;;;;;8.10;5.10;;;14.20;99.90;;;;;;4953190;28;20035;-86
2023/08/30 06:58:38;;;;;;;5.97;4.03;;;14.20;99.90;;;;;;4969727;28;20118;-86
2023/08/30 07:01:04;;;;;;;4.38;3.38;;;14.20;99.90;;;;;;4950366;28;20031;-87
2023/08/30 07:03:30;;;;;;;5.70;3.67;;;14.20;99.90;;;;;;4954629;28;20023;-87
2023/08/30 07:05:56;;;;;;;3.63;3.00;;;14.20;99.90;;;;;;4953248;28;20125;-88
2023/08/30 07:08:21;;;;;;;4.70;3.33;;;14.20;99.90;;;;;;4970153;28;20027;-89
2023/08/30 07:10:47;;;;;;;4.47;3.75;;;14.20;99.90;;;;;;4950820;28;20537;-91
2023/08/30 07:13:13;;;;;;;5.18;3.08;;;14.20;99.90;;;;;;4952392;28;20024;-89
2023/08/30 07:15:40;;;;;;;4.80;3.50;;;14.30;99.90;;;;;;4951343;28;20034;-90
2023/08/30 07:18:07;;;;;;;5.40;3.75;;;14.30;99.90;;;;;;4965091;28;20048;-90
2023/08/30 07:20:32;;;;;;;4.00;3.22;;;14.20;99.90;;;;;;4981991;28;20031;-93
2023/08/30 07:22:58;;;;;;;4.15;3.22;;;14.20;99.90;;;;;;4968295;28;20034;-89
2023/08/30 07:25:24;;;;;;;6.10;3.70;;;14.20;99.90;;;;;;4967517;28;20370;-88
2023/08/30 07:27:50;;;;;;;3.97;2.97;;;14.20;99.90;;;;;;4967383;28;20157;-85
2023/08/30 07:30:16;;;;;;;4.05;3.10;;;14.20;99.90;;;;;;4965122;28;20060;-91
2023/08/30 07:32:42;;;;;;;4.22;3.17;;;14.20;99.90;;;;;;4967597;28;20030;-87
2023/08/30 07:35:08;;;;;;;5.13;3.88;;;14.20;99.90;;;;;;4953582;28;20082;-93
2023/08/30 07:37:35;;;;;;;4.93;3.85;;;14.20;99.90;;;;;;4953464;28;20037;-88
2023/08/30 07:40:01;;;;;;;6.35;5.10;;;14.20;99.90;;;;;;4968195;28;20046;-88
2023/08/30 07:42:27;;;;;;;9.23;6.93;;;14.20;99.90;;;;;;4952917;28;20039;-89
2023/08/30 07:44:52;;;;;;;6.45;5.72;;;14.20;99.90;;;;;;4951900;28;20042;-89
2023/08/30 07:47:18;;;;;;;6.72;4.90;;;14.20;99.90;;;;;;4952732;28;20035;-86
2023/08/30 07:49:44;;;;;;;6.20;5.07;;;14.30;99.90;;;;;;4953010;28;20037;-90
2023/08/30 07:52:10;;;;;;;5.40;3.90;;;14.30;99.90;;;;;;4969236;28;20041;-89
2023/08/30 07:54:38;;;;;;;5.10;4.13;;;14.30;99.90;;;;;;4968049;28;20023;-89
2023/08/30 07:57:04;;;;;;;5.30;4.80;;;14.30;99.90;;;;;;4949130;28;20035;-87
2023/08/30 07:59:32;;;;;;;6.15;4.60;;;14.30;99.90;;;;;;4953886;28;20391;-88
2023/08/30 08:01:58;;;;;;;4.55;4.07;;;14.20;99.90;;;;;;4949647;28;20062;-87
2023/08/30 08:04:23;;;;;;;5.28;3.75;;;14.20;99.90;;;;;;4951271;28;20054;-88
2023/08/30 08:06:49;;;;;;;4.53;4.03;;;14.10;99.90;;;;;;4952407;28;20452;-89
2023/08/30 08:09:15;;;;;;;5.68;3.85;;;14.00;99.90;;;;;;4967559;28;20030;-88
2023/08/30 08:11:43;;;;;;;5.80;4.93;;;14.00;99.90;;;;;;4953318;28;20400;-88
2023/08/30 08:14:10;;;;;;;5.15;4.53;;;13.90;99.90;;;;;;4950335;28;20027;-87
2023/08/30 08:16:37;;;;;;;4.03;2.30;;;13.90;99.90;;;;;;4967480;28;20058;-88
2023/08/30 08:19:03;;;;;;;4.60;2.85;;;13.90;99.90;;;;;;4951500;28;20037;-88
2023/08/30 08:21:29;;;;;;;4.15;2.97;;;13.80;99.90;;;;;;4951019;28;20031;-88
2023/08/30 08:23:54;;;;;;;3.20;2.40;;;13.80;99.90;;;;;;4951341;28;20414;-88
2023/08/30 08:26:20;;;;;;;4.05;3.00;;;13.80;99.90;;;;;;4951161;28;20027;-88
2023/08/30 08:28:46;;;;;;;4.65;2.95;;;13.80;99.90;;;;;;4950887;28;20030;-85
2023/08/30 08:31:12;;;;;;;5.32;3.38;;;13.80;99.90;;;;;;4952527;28;20043;-86
2023/08/30 08:33:37;;;;;;;2.78;1.83;;;13.90;99.90;;;;;;4964566;28;20081;-85
2023/08/30 08:36:03;;;;;;;4.82;2.55;;;13.90;99.90;;;;;;4965027;28;20073;-88
2023/08/30 08:38:29;;;;;;;3.58;2.13;;;13.80;99.90;;;;;;4947416;28;20051;-89
2023/08/30 08:41:03;;;;;;;2.78;2.28;;;13.80;99.90;;;;;;4948586;28;20057;-89
2023/08/30 08:43:31;;;;;;;3.97;2.70;;;13.80;99.90;;;;;;4947336;28;20024;-93
2023/08/30 08:46:00;;;;;;;3.63;2.17;;;13.90;99.90;;;;;;4964167;28;20066;-87
2023/08/30 08:48:33;;;;;;;4.30;2.50;;;13.90;99.90;;;;;;4946655;28;20023;-90
2023/08/30 08:51:00;;;;;;;3.50;1.88;;;13.90;99.90;;;;;;4965100;28;20316;-92
2023/08/30 08:53:26;;;;;;;4.97;2.35;;;14.00;99.90;;;;;;4963215;28;20110;-87
2023/08/30 08:55:53;;;;;;;3.13;2.65;;;14.10;99.90;;;;;;4965529;28;20137;-89
2023/08/30 08:58:18;;;;;;;2.90;2.35;;;14.00;99.90;;;;;;4949476;28;20026;-91
2023/08/30 09:00:45;;;;;;;3.00;2.63;;;14.10;99.90;;;;;;4964712;28;20031;-85
2023/08/30 09:03:11;;;;;;;4.10;2.53;;;14.20;99.90;;;;;;4942851;28;20118;-92
2023/08/30 09:05:38;;;;;;;3.80;2.78;;;14.20;99.90;;;;;;4949692;28;20027;-93
2023/08/30 09:08:05;;;;;;;4.38;3.15;;;14.30;99.90;;;;;;4963999;28;20415;-90
2023/08/30 09:10:34;;;;;;;3.92;3.45;;;14.40;99.90;;;;;;4965664;28;20038;-90
2023/08/30 09:13:00;;;;;;;5.25;3.33;;;14.40;99.90;;;;;;4967592;28;20422;-92
2023/08/30 09:15:38;;;;;;;4.88;3.20;;;14.30;99.90;;;;;;4952752;28;20134;-87
2023/08/30 09:18:04;;;;;;;6.85;4.35;;;14.40;99.90;;;;;;4966189;28;20484;-87
2023/08/30 09:20:30;;;;;;;6.53;5.22;;;14.30;99.90;;;;;;4950043;28;20117;-91
2023/08/30 09:22:56;;;;;;;4.78;3.97;;;14.20;99.90;;;;;;4952336;28;20467;-88
2023/08/30 09:25:26;;;;;;;7.65;6.80;;;14.20;99.90;;;;;;4950177;28;20078;-87
2023/08/30 09:27:58;;;;;;;4.90;4.40;;;14.20;99.90;;;;;;4966991;28;20109;-87
2023/08/30 09:30:24;;;;;;;3.90;3.55;;;14.20;99.90;;;;;;4950233;28;20031;-95
2023/08/30 09:32:49;;;;;;;4.32;3.45;;;14.20;99.90;;;;;;4950469;28;20100;-86
2023/08/30 09:35:15;;;;;;;6.85;4.28;;;14.20;99.90;;;;;;4965745;28;20054;-94
2023/08/30 09:37:41;;;;;;;4.57;3.47;;;14.20;99.90;;;;;;4964754;28;20039;-90
2023/08/30 09:40:07;;;;;;;4.05;3.55;;;14.20;99.90;;;;;;4947993;28;20043;-89
2023/08/30 09:42:33;;;;;;;4.03;2.63;;;14.20;99.90;;;;;;4966244;28;20027;-89
2023/08/30 09:44:58;;;;;;;4.70;2.78;;;14.20;99.90;;;;;;4966559;28;20161;-88
2023/08/30 09:47:28;;;;;;;3.28;2.97;;;14.20;99.90;;;;;;4949192;28;20125;-88
2023/08/30 09:49:55;;;;;;;2.75;2.33;;;14.20;99.90;;;;;;4983013;28;20023;-92
2023/08/30 09:52:23;;;;;;;3.00;1.98;;;14.20;99.90;;;;;;4965250;28;20034;-87
2023/08/30 09:54:50;;;;;;;2.78;1.77;;;14.30;99.90;;;;;;4966314;28;20574;-86
2023/08/30 09:57:17;;;;;;;2.40;1.30;;;14.30;99.90;;;;;;4951376;28;20026;-87
2023/08/30 09:59:42;;;;;;;2.28;1.60;;;14.30;99.90;;;;;;4968141;28;20027;-88
2023/08/30 10:02:09;;;;;;;2.38;1.70;;;14.40;99.90;;;;;;4968119;28;20054;-93
2023/08/30 10:04:39;;;;;;;3.90;1.92;;;14.50;99.90;;;;;;4981618;28;20129;-93
2023/08/30 10:07:07;;;;;;;3.00;2.33;;;14.50;99.90;;;;;;4967784;28;20062;-86
2023/08/30 10:09:33;;;;;;;3.13;1.90;;;14.50;99.90;;;;;;4944961;28;20038;-88
2023/08/30 10:12:01;;;;;;;2.40;1.48;;;14.60;99.90;;;;;;4951611;28;20041;-85
2023/08/30 10:14:27;;;;;;;2.90;1.90;;;14.70;99.90;;;;;;4968041;28;20551;-90
2023/08/30 10:17:03;;;;;;;2.53;1.73;;;14.60;99.90;;;;;;4968449;28;20123;-86
2023/08/30 10:19:29;;;;;;;1.85;1.23;;;14.70;99.90;;;;;;4953336;28;20134;-86
2023/08/30 10:22:08;;;;;;;2.47;1.10;;;14.90;99.90;;;;;;4950463;28;20030;-87
2023/08/30 10:24:57;;;;;;;2.47;1.38;;;14.90;99.90;;;;;;4977060;28;20035;-86
2023/08/30 10:27:26;;;;;;;1.73;0.90;;;15.00;99.90;;;;;;4961239;28;20038;-85
2023/08/30 10:29:52;;;;;;;2.50;1.23;;;15.00;99.90;;;;;;4951181;28;20057;-85
2023/08/30 10:32:24;;;;;;;2.30;1.00;;;15.00;99.90;;;;;;4961729;28;20031;-92
2023/08/30 10:34:51;;;;;;;2.90;1.60;;;15.00;99.90;;;;;;4962905;28;20093;-89
2023/08/30 10:37:26;;;;;;;3.70;1.33;;;14.90;99.90;;;;;;4968945;28;20035;-91
2023/08/30 10:39:52;;;;;;;3.35;1.50;;;14.90;99.90;;;;;;4963669;28;20037;-86
2023/08/30 10:42:22;;;;;;;2.47;1.35;;;14.90;99.90;;;;;;4955069;28;20093;-91
2023/08/30 10:44:59;;;;;;;1.80;1.00;;;14.90;99.90;;;;;;4952001;28;20431;-91
2023/08/30 10:47:28;;;;;;;2.20;1.58;;;15.00;99.90;;;;;;4966702;28;20046;-93
2023/08/30 10:49:55;;;;;;;2.65;1.23;;;15.10;99.90;;;;;;4952285;28;20348;-92
2023/08/30 10:52:22;;;;;;;2.00;1.00;;;15.10;99.90;;;;;;4967345;28;20121;-89
2023/08/30 10:54:48;;;;;;;1.70;1.10;;;15.20;99.90;;;;;;4961858;28;20050;-91
2023/08/30 10:57:16;;;;;;;2.17;1.17;;;15.40;99.90;;;;;;4965841;28;20093;-87
2023/08/30 11:00:19;;;;;;;3.45;1.52;;;15.80;99.90;;;;;;4967540;28;20030;-91
2023/08/30 11:02:47;;;;;;;1.92;1.05;;;16.20;99.90;;;;;;4979954;28;20043;-84
2023/08/30 11:05:16;;;;;;;3.53;3.22;;;16.30;99.90;;;;;;4947639;28;20034;-84
2023/08/30 11:07:43;;;;;;;2.15;1.65;;;16.30;99.90;;;;;;4960694;28;20103;-87
2023/08/30 11:10:09;;;;;;;2.85;1.73;;;16.60;99.90;;;;;;4962859;28;20054;-88
2023/08/30 11:12:35;;;;;;;2.78;1.40;;;16.80;99.90;;;;;;4966243;28;20370;-86
2023/08/30 11:15:02;;;;;;;2.30;1.45;;;17.00;99.90;;;;;;4959240;28;20599;-91
2023/08/30 11:17:28;;;;;;;2.33;1.77;;;17.40;99.90;;;;;;4949173;28;20045;-90
2023/08/30 11:20:05;;;;;;;3.00;2.50;;;17.50;99.90;;;;;;4948680;28;20027;-88
2023/08/30 11:22:31;;;;;;;2.97;2.65;;;17.50;99.90;;;;;;4966004;28;20037;-90
2023/08/30 11:24:56;;;;;;;3.10;2.22;;;17.40;99.90;;;;;;4950340;28;20039;-88
2023/08/30 11:27:22;;;;;;;2.85;2.03;;;18.10;99.90;;;;;;4958982;28;20086;-86
2023/08/30 11:29:48;;;;;;;2.83;1.75;;;18.40;99.90;;;;;;4973167;28;20463;-84
2023/08/30 11:32:14;;;;;;;2.20;1.90;;;18.60;99.90;;;;;;4977932;28;20054;-94
2023/08/30 11:34:39;;;;;;;2.92;2.10;;;18.60;99.90;;;;;;4960954;28;20027;-92
2023/08/30 11:37:05;;;;;;;3.25;1.88;;;18.30;99.90;;;;;;4961775;28;20078;-84
2023/08/30 11:39:31;;;;;;;2.17;1.50;;;17.90;99.90;;;;;;4963835;28;20023;-84
2023/08/30 11:41:57;;;;;;;2.00;1.70;;;17.60;99.90;;;;;;4959826;28;20055;-88
2023/08/30 11:44:29;;;;;;;4.38;2.85;;;17.20;99.90;;;;;;4961076;28;20030;-89
2023/08/30 11:46:59;;;;;;;2.70;1.70;;;17.10;99.90;;;;;;4961184;28;20059;-88
2023/08/30 11:49:26;;;;;;;2.53;2.13;;;17.00;99.90;;;;;;4966318;28;20035;-92
2023/08/30 11:51:52;;;;;;;2.20;1.30;;;16.80;99.90;;;;;;4961612;28;20102;-87
2023/08/30 11:54:20;;;;;;;8.07;6.07;;;16.60;99.90;;;;;;4961104;28;20200;-88
2023/08/30 11:56:46;;;;;;;8.77;7.88;;;16.40;99.90;;;;;;4975867;28;20035;-89
2023/08/30 11:59:21;;;;;;;7.25;6.50;;;16.40;99.90;;;;;;4959475;28;20027;-86
2023/08/30 12:01:49;;;;;;;6.47;5.88;;;16.50;99.90;;;;;;4962580;28;20031;-85
2023/08/30 12:04:15;;;;;;;8.20;7.40;;;16.60;99.90;;;;;;4964569;28;20038;-84
2023/08/30 12:06:41;;;;;;;9.13;8.23;;;16.60;99.90;;;;;;4963001;28;20042;-90
2023/08/30 12:09:12;;;;;;;7.68;6.88;;;16.70;99.90;;;;;;4948796;28;20046;-89
2023/08/30 12:11:37;;;;;;;8.25;7.45;;;17.10;99.90;;;;;;4962742;28;20383;-88
2023/08/30 12:14:03;;;;;;;11.48;9.35;;;17.60;99.90;;;;;;4966811;28;20034;-85
2023/08/30 12:16:29;;;;;;;6.35;5.68;;;17.70;99.90;;;;;;4968075;28;20035;-94
2023/08/30 12:18:55;;;;;;;4.55;3.60;;;17.70;99.90;;;;;;4965938;28;20292;-90
2023/08/30 12:21:21;;;;;;;4.00;2.63;;;17.80;99.90;;;;;;4964269;28;20031;-87
2023/08/30 12:23:46;;;;;;;8.35;2.67;;;17.60;99.90;;;;;;4975721;28;20482;-85
2023/08/30 12:26:12;;;;;;;4.00;2.63;;;17.50;99.90;;;;;;4948561;28;20081;-90
2023/08/30 12:28:39;;;;;;;4.68;2.92;;;17.50;99.90;;;;;;4948146;28;20191;-92
2023/08/30 12:31:09;;;;;;;3.65;2.05;;;17.40;99.90;;;;;;4961419;28;20041;-87
2023/08/30 12:33:35;;;;;;;4.00;2.28;;;17.30;99.90;;;;;;4965274;28;20030;-89
2023/08/30 12:36:01;;;;;;;4.60;2.58;;;17.40;99.90;;;;;;4964532;28;20043;-88
2023/08/30 12:38:27;;;;;;;3.50;2.30;;;17.50;99.90;;;;;;4960974;28;20554;-88
2023/08/30 12:40:56;;;;;;;4.20;2.72;;;17.50;99.90;;;;;;4959000;28;20415;-90
2023/08/30 12:43:23;;;;;;;5.13;2.58;;;17.40;99.90;;;;;;4973132;28;20038;-85
2023/08/30 12:45:50;;;;;;;4.65;2.33;;;17.30;99.90;;;;;;4962265;28;20039;-88
2023/08/30 12:48:17;;;;;;;4.05;1.88;;;17.10;99.90;;;;;;4951503;28;20062;-86